createdAt,value
2022-08-17T00:00:34.841Z,7.07
2022-08-17T00:03:18.429Z,7.38
2022-08-17T00:06:08.645Z,7.38
2022-08-17T00:08:57.657Z,6.18
2022-08-17T00:11:26.483Z,7.43
2022-08-17T00:13:57.914Z,7.05
2022-08-17T00:16:55.836Z,6.85
2022-08-17T00:19:23.536Z,7.47
2022-08-17T00:22:32.892Z,7.18
2022-08-17T00:24:40.832Z,7.38
2022-08-17T00:27:08.223Z,6.82
2022-08-17T00:29:35.276Z,8.02
2022-08-17T00:33:13.763Z,6.53
2022-08-17T00:34:50.678Z,7.38
2022-08-17T00:37:17.640Z,6.00
2022-08-17T00:39:44.648Z,8.75
2022-08-17T00:42:16.333Z,7.60
2022-08-17T00:44:43.382Z,7.65
2022-08-17T00:47:10.299Z,6.82
2022-08-17T00:49:37.291Z,7.38
2022-08-17T00:52:15.570Z,7.32
2022-08-17T00:54:47.949Z,7.50
2022-08-17T00:57:30.139Z,6.90
2022-08-17T01:00:05.994Z,7.38
2022-08-17T01:02:43.816Z,7.30
2022-08-17T01:05:25.871Z,6.68
2022-08-17T01:07:53.936Z,7.38
2022-08-17T01:10:58.301Z,7.00
2022-08-17T01:13:13.805Z,7.20
2022-08-17T01:15:47.969Z,7.65
2022-08-17T01:18:16.729Z,7.90
2022-08-17T01:20:53.789Z,8.80
2022-08-17T01:23:23.675Z,8.52
2022-08-17T01:25:55.051Z,9.35
2022-08-17T01:28:52.618Z,11.70
2022-08-17T01:31:12.698Z,11.65
2022-08-17T01:33:39.699Z,12.80
2022-08-17T01:36:07.855Z,8.95
2022-08-17T01:38:36.652Z,9.05
2022-08-17T01:41:09.623Z,9.95
2022-08-17T01:43:59.313Z,8.32
2022-08-17T01:46:30.208Z,10.38
2022-08-17T01:48:57.699Z,9.90
2022-08-17T01:51:27.795Z,9.65
2022-08-17T01:53:58.703Z,7.95
2022-08-17T01:56:28.023Z,8.90
2022-08-17T01:58:55.697Z,9.63
2022-08-17T02:01:27.712Z,7.88
2022-08-17T02:04:00.652Z,8.15
2022-08-17T02:06:52.422Z,7.78
2022-08-17T02:09:23.348Z,7.93
2022-08-17T02:11:52.978Z,9.45
2022-08-17T02:14:21.194Z,7.20
2022-08-17T02:16:48.191Z,8.23
2022-08-17T02:19:16.629Z,6.93
2022-08-17T02:21:46.577Z,7.60
2022-08-17T02:24:58.446Z,8.68
2022-08-17T02:27:06.989Z,7.80
2022-08-17T02:29:34.057Z,7.65
2022-08-17T02:32:01.984Z,7.30
2022-08-17T02:34:30.227Z,7.38
2022-08-17T02:36:57.267Z,7.20
2022-08-17T02:39:24.358Z,6.95
2022-08-17T02:42:01.212Z,6.68
2022-08-17T02:44:38.817Z,7.05
2022-08-17T02:47:09.321Z,7.03
2022-08-17T02:49:37.343Z,7.22
2022-08-17T02:52:06.351Z,7.40
2022-08-17T02:54:40.445Z,6.63
2022-08-17T02:57:10.365Z,6.70
2022-08-17T02:59:44.268Z,6.40
2022-08-17T03:02:15.509Z,7.50
2022-08-17T03:04:42.469Z,7.32
2022-08-17T03:07:09.452Z,7.20
2022-08-17T03:09:36.348Z,7.75
2022-08-17T03:12:14.097Z,7.72
2022-08-17T03:14:42.721Z,7.63
2022-08-17T03:17:17.027Z,7.35
2022-08-17T03:19:45.055Z,10.30
2022-08-17T03:22:35.962Z,7.05
2022-08-17T03:24:58.994Z,6.95
2022-08-17T03:27:26.401Z,7.18
2022-08-17T03:29:53.494Z,7.75
2022-08-17T03:32:20.924Z,8.70
2022-08-17T03:34:48.111Z,6.80
2022-08-17T03:37:15.275Z,7.43
2022-08-17T03:39:43.056Z,7.15
2022-08-17T03:42:32.564Z,6.97
2022-08-17T03:45:01.145Z,7.40
2022-08-17T03:47:47.051Z,6.78
2022-08-17T03:50:38.384Z,7.18
2022-08-17T03:53:34.530Z,8.25
2022-08-17T03:56:21.826Z,8.07
2022-08-17T03:58:49.562Z,7.15
2022-08-17T04:01:18.122Z,7.47
2022-08-17T04:03:45.282Z,8.68
2022-08-17T04:06:12.336Z,7.72
2022-08-17T04:08:39.299Z,7.38
2022-08-17T04:11:06.298Z,7.85
2022-08-17T04:13:33.269Z,7.28
2022-08-17T04:16:00.237Z,7.57
2022-08-17T04:18:27.292Z,7.65
2022-08-17T04:20:54.340Z,6.72
2022-08-17T04:23:21.347Z,7.75
2022-08-17T04:25:50.749Z,8.90
2022-08-17T04:28:19.359Z,7.30
2022-08-17T04:30:47.645Z,6.88
2022-08-17T04:33:24.783Z,6.35
2022-08-17T04:35:54.519Z,7.05
2022-08-17T04:38:30.374Z,6.65
2022-08-17T04:41:17.429Z,7.05
2022-08-17T04:43:46.307Z,7.10
2022-08-17T04:46:18.490Z,5.70
2022-08-17T04:48:48.438Z,7.13
2022-08-17T04:51:37.862Z,6.10
2022-08-17T04:54:07.602Z,7.32
2022-08-17T04:56:35.956Z,8.13
2022-08-17T04:59:13.794Z,7.70
2022-08-17T05:01:43.906Z,8.90
2022-08-17T05:04:21.069Z,10.32
2022-08-17T05:07:00.670Z,9.85
2022-08-17T05:09:27.755Z,11.00
2022-08-17T05:11:55.311Z,11.13
2022-08-17T05:14:32.364Z,11.57
2022-08-17T05:17:01.680Z,11.18
2022-08-17T05:19:29.011Z,10.63
2022-08-17T05:21:55.955Z,8.05
2022-08-17T05:24:39.837Z,8.05
2022-08-17T05:27:09.891Z,7.72
2022-08-17T05:29:41.392Z,7.53
2022-08-17T05:32:47.896Z,7.53
2022-08-17T05:35:00.755Z,6.57
2022-08-17T05:37:27.938Z,6.50
2022-08-17T05:39:55.025Z,7.25
2022-08-17T05:42:22.383Z,7.65
2022-08-17T05:44:49.347Z,7.00
2022-08-17T05:47:16.808Z,7.13
2022-08-17T05:49:44.007Z,7.90
2022-08-17T05:52:20.057Z,8.95
2022-08-17T05:55:21.428Z,7.55
2022-08-17T05:58:26.443Z,7.10
2022-08-17T06:01:15.146Z,8.77
2022-08-17T06:03:55.408Z,7.63
2022-08-17T06:06:36.851Z,6.45
2022-08-17T06:09:30.163Z,6.53
2022-08-17T06:12:18.979Z,8.25
2022-08-17T06:15:02.118Z,8.07
2022-08-17T06:17:29.936Z,7.75
2022-08-17T06:20:03.132Z,7.30
2022-08-17T06:22:34.694Z,6.97
2022-08-17T06:25:10.163Z,9.75
2022-08-17T06:27:43.303Z,8.10
2022-08-17T06:30:20.932Z,6.78
2022-08-17T06:32:50.409Z,6.78
2022-08-17T06:35:31.988Z,6.43
2022-08-17T06:38:00.600Z,7.50
2022-08-17T06:41:05.104Z,6.95
2022-08-17T06:43:56.927Z,6.88
2022-08-17T06:46:25.981Z,7.53
2022-08-17T06:49:26.833Z,7.30
2022-08-17T06:52:45.991Z,7.40
2022-08-17T06:55:18.022Z,7.63
2022-08-17T06:57:51.641Z,6.70
2022-08-17T07:00:33.772Z,7.35
2022-08-17T07:03:21.045Z,6.90
2022-08-17T07:06:19.216Z,6.55
2022-08-17T07:09:03.144Z,6.10
2022-08-17T07:11:39.206Z,13.25
2022-08-17T07:14:30.390Z,6.80
2022-08-17T07:17:02.146Z,8.40
2022-08-17T07:19:32.875Z,8.10
2022-08-17T07:22:28.190Z,6.85
2022-08-17T07:24:58.521Z,6.25
2022-08-17T07:27:36.045Z,7.10
2022-08-17T07:30:16.563Z,7.07
2022-08-17T07:32:51.278Z,7.30
2022-08-17T07:35:22.183Z,7.90
2022-08-17T07:37:55.792Z,9.25
2022-08-17T07:40:29.887Z,6.55
2022-08-17T07:43:23.496Z,5.95
2022-08-17T07:46:18.487Z,6.88
2022-08-17T07:48:49.958Z,6.90
2022-08-17T07:51:30.119Z,6.32
2022-08-17T07:54:13.610Z,6.80
2022-08-17T07:56:45.903Z,6.53
2022-08-17T07:59:27.174Z,6.93
2022-08-17T08:02:02.429Z,6.60
2022-08-17T08:04:59.117Z,7.18
2022-08-17T08:07:30.524Z,6.63
2022-08-17T08:10:15.335Z,7.43
2022-08-17T08:12:53.648Z,7.03
2022-08-17T08:15:33.332Z,6.53
2022-08-17T08:18:03.939Z,7.95
2022-08-17T08:21:03.934Z,6.85
2022-08-17T08:23:37.188Z,7.47
2022-08-17T08:26:18.766Z,6.82
2022-08-17T08:28:58.274Z,7.07
2022-08-17T08:31:47.487Z,7.07
2022-08-17T08:35:00.800Z,9.05
2022-08-17T08:37:35.746Z,7.68
2022-08-17T08:40:16.783Z,8.07
2022-08-17T08:43:06.911Z,7.55
2022-08-17T08:46:07.887Z,8.32
2022-08-17T08:48:58.747Z,7.82
2022-08-17T08:51:57.491Z,7.15
2022-08-17T08:54:57.006Z,7.53
2022-08-17T08:57:34.570Z,8.27
2022-08-17T09:00:23.184Z,8.15
2022-08-17T09:03:08.539Z,8.15
2022-08-17T09:06:33.615Z,7.80
2022-08-17T09:09:22.456Z,7.60
2022-08-17T09:12:08.642Z,8.77
2022-08-17T09:14:45.114Z,8.15
2022-08-17T09:17:18.418Z,8.13
2022-08-17T09:19:58.126Z,8.18
2022-08-17T09:22:34.333Z,7.68
2022-08-17T09:25:27.118Z,9.02
2022-08-17T09:28:00.584Z,9.73
2022-08-17T09:30:40.864Z,9.25
2022-08-17T09:33:10.170Z,8.82
2022-08-17T09:35:51.244Z,8.95
2022-08-17T09:38:31.754Z,9.88
2022-08-17T09:41:06.597Z,9.13
2022-08-17T09:43:41.436Z,10.10
2022-08-17T09:46:16.088Z,8.77
2022-08-17T09:49:25.127Z,9.55
2022-08-17T09:51:58.925Z,8.20
2022-08-17T09:54:45.599Z,7.95
2022-08-17T09:58:00.476Z,7.63
2022-08-17T10:00:35.791Z,7.07
2022-08-17T10:03:21.547Z,7.63
2022-08-17T10:05:57.402Z,7.88
2022-08-17T10:08:47.307Z,7.85
2022-08-17T10:11:55.673Z,7.25
2022-08-17T10:14:46.936Z,7.97
2022-08-17T10:17:26.947Z,8.40
2022-08-17T10:20:07.104Z,8.93
2022-08-17T10:23:10.523Z,8.35
2022-08-17T10:26:04.363Z,8.68
2022-08-17T10:28:55.023Z,8.80
2022-08-17T10:31:42.739Z,9.43
2022-08-17T10:34:24.566Z,9.30
2022-08-17T10:37:06.939Z,9.40
2022-08-17T10:39:51.822Z,9.18
2022-08-17T10:42:33.027Z,8.32
2022-08-17T10:45:15.155Z,9.20
2022-08-17T10:48:14.412Z,9.73
2022-08-17T10:50:57.728Z,8.90
2022-08-17T10:53:33.841Z,10.05
2022-08-17T10:56:22.605Z,10.07
2022-08-17T10:58:54.299Z,10.73
2022-08-17T11:01:47.543Z,10.25
2022-08-17T11:04:29.835Z,10.15
2022-08-17T11:07:37.397Z,10.02
2022-08-17T11:10:42.390Z,11.87
2022-08-17T11:13:38.719Z,11.18
2022-08-17T11:16:48.162Z,10.90
2022-08-17T11:19:47.369Z,11.95
2022-08-17T11:22:39.283Z,10.30
2022-08-17T11:25:22.873Z,11.35
2022-08-17T11:28:04.514Z,10.77
2022-08-17T11:31:38.000Z,9.93
2022-08-17T11:34:27.318Z,10.30
2022-08-17T11:37:01.865Z,11.52
2022-08-17T11:39:51.232Z,11.30
2022-08-17T11:42:39.023Z,14.43
2022-08-17T11:45:33.284Z,11.93
2022-08-17T11:49:00.122Z,13.02
2022-08-17T11:51:55.408Z,11.65
2022-08-17T11:54:45.378Z,11.40
2022-08-17T11:57:27.752Z,11.85
2022-08-17T11:59:58.415Z,11.77
2022-08-17T12:02:31.681Z,12.45
2022-08-17T12:05:12.451Z,12.32
2022-08-17T12:07:42.640Z,10.85
2022-08-17T12:10:12.518Z,11.57
2022-08-17T12:12:44.253Z,11.75
2022-08-17T12:15:17.573Z,12.13
2022-08-17T12:17:56.053Z,11.73
2022-08-17T12:23:44.149Z,11.90
2022-08-17T12:26:19.623Z,13.13
2022-08-17T12:28:56.084Z,11.88
2022-08-17T12:31:34.784Z,12.27
2022-08-17T12:34:04.628Z,13.68
2022-08-17T12:36:33.910Z,12.13
2022-08-17T12:39:14.583Z,12.15
2022-08-17T12:41:50.361Z,11.65
2022-08-17T12:44:23.565Z,13.38
2022-08-17T12:47:10.839Z,13.35
2022-08-17T12:49:42.332Z,12.82
2022-08-17T12:52:28.804Z,13.27
2022-08-17T12:55:00.729Z,13.70
2022-08-17T12:57:35.259Z,13.55
2022-08-17T13:00:17.801Z,14.15
2022-08-17T13:03:07.870Z,12.85
2022-08-17T13:05:41.255Z,11.73
2022-08-17T13:08:17.829Z,12.40
2022-08-17T13:11:01.602Z,10.68
2022-08-17T13:13:33.901Z,11.75
2022-08-17T13:16:17.237Z,11.57
2022-08-17T13:18:48.884Z,11.68
2022-08-17T13:21:19.123Z,12.30
2022-08-17T13:24:11.967Z,11.32
2022-08-17T13:26:44.821Z,11.43
2022-08-17T13:29:23.499Z,11.88
2022-08-17T13:32:04.871Z,13.07
2022-08-17T13:34:38.122Z,13.02
2022-08-17T13:37:30.004Z,14.40
2022-08-17T13:40:19.700Z,14.63
2022-08-17T13:42:51.648Z,15.38
2022-08-17T13:45:39.802Z,14.77
2022-08-17T13:48:12.356Z,16.70
2022-08-17T13:50:56.614Z,15.35
2022-08-17T13:53:31.361Z,15.75
2022-08-17T13:56:33.459Z,15.75
2022-08-17T13:59:00.274Z,13.73
2022-08-17T14:01:53.389Z,14.40
2022-08-17T14:04:28.084Z,13.95
2022-08-17T14:07:01.450Z,13.15
2022-08-17T14:09:43.556Z,13.88
2022-08-17T14:12:16.374Z,12.98
2022-08-17T14:14:44.819Z,13.18
2022-08-17T14:17:12.311Z,12.73
2022-08-17T14:19:39.831Z,13.13
2022-08-17T14:22:17.195Z,12.70
2022-08-17T14:24:45.113Z,12.75
2022-08-17T14:27:12.632Z,13.63
2022-08-17T14:29:41.389Z,15.18
2022-08-17T14:32:33.847Z,16.27
2022-08-17T14:35:01.782Z,14.88
2022-08-17T14:37:29.572Z,15.40
2022-08-17T14:39:58.994Z,14.90
2022-08-17T14:42:29.237Z,14.60
2022-08-17T14:44:58.826Z,15.07
2022-08-17T14:47:26.807Z,14.90
2022-08-17T14:49:53.993Z,16.10
2022-08-17T14:52:21.939Z,16.92
2022-08-17T14:54:51.483Z,15.73
2022-08-17T14:57:26.197Z,15.52
2022-08-17T15:00:01.272Z,15.45
2022-08-17T15:02:30.836Z,14.68
2022-08-17T15:05:02.567Z,16.83
2022-08-17T15:07:30.404Z,14.88
2022-08-17T15:10:02.366Z,15.82
2022-08-17T15:12:34.604Z,15.10
2022-08-17T15:15:06.461Z,14.98
2022-08-17T15:17:45.125Z,14.30
2022-08-17T15:20:17.834Z,13.55
2022-08-17T15:22:46.297Z,14.40
2022-08-17T15:25:14.114Z,15.43
2022-08-17T15:27:41.871Z,14.33
2022-08-17T15:30:10.664Z,14.67
2022-08-17T15:32:41.312Z,18.35
2022-08-17T15:35:19.817Z,23.80
2022-08-17T15:37:55.125Z,24.77
2022-08-17T15:40:22.180Z,22.17
2022-08-17T15:42:49.254Z,20.33
2022-08-17T15:45:21.457Z,17.92
2022-08-17T15:47:48.450Z,16.83
2022-08-17T15:50:15.408Z,16.23
2022-08-17T15:52:55.678Z,14.13
2022-08-17T15:55:24.239Z,15.68
2022-08-17T15:57:52.435Z,18.10
2022-08-17T16:00:20.180Z,17.75
2022-08-17T16:03:14.863Z,21.92
2022-08-17T16:05:35.896Z,23.02
2022-08-17T16:10:35.756Z,26.83
2022-08-17T16:13:04.657Z,28.75
2022-08-17T16:15:32.214Z,30.10
2022-08-17T16:17:59.508Z,31.70
2022-08-17T16:20:26.741Z,30.50
2022-08-17T16:22:54.961Z,30.85
2022-08-17T16:25:38.389Z,32.83
2022-08-17T16:28:17.582Z,32.70
2022-08-17T16:30:45.658Z,30.45
2022-08-17T16:33:12.872Z,27.10
2022-08-17T16:35:42.053Z,25.90
2022-08-17T16:38:09.730Z,27.90
2022-08-17T16:40:36.758Z,27.77
2022-08-17T16:43:10.710Z,27.38
2022-08-17T16:45:40.834Z,24.83
2022-08-17T16:48:09.548Z,25.02
2022-08-17T16:50:37.111Z,24.80
2022-08-17T16:53:06.855Z,24.83
2022-08-17T16:55:37.797Z,23.08
2022-08-17T16:58:06.630Z,22.13
2022-08-17T17:00:34.164Z,21.10
2022-08-17T17:03:19.385Z,21.20
2022-08-17T17:05:58.006Z,17.15
2022-08-17T17:08:30.527Z,18.38
2022-08-17T17:11:03.917Z,18.00
2022-08-17T17:13:54.299Z,18.83
2022-08-17T17:16:26.708Z,20.00
2022-08-17T17:19:12.064Z,18.55
2022-08-17T17:22:20.745Z,19.05
2022-08-17T17:24:50.622Z,18.58
2022-08-17T17:27:31.961Z,20.38
2022-08-17T17:30:16.817Z,17.13
2022-08-17T17:32:54.474Z,16.75
2022-08-17T17:35:27.643Z,15.67
2022-08-17T17:37:57.503Z,15.18
2022-08-17T17:40:48.114Z,12.88
2022-08-17T17:43:38.221Z,11.90
2022-08-17T17:46:27.700Z,10.25
2022-08-17T17:48:57.286Z,10.50
2022-08-17T17:52:09.111Z,9.85
2022-08-17T17:54:32.549Z,9.27
2022-08-17T17:57:17.845Z,9.55
2022-08-17T17:59:47.735Z,8.50
2022-08-17T18:02:52.172Z,9.35
2022-08-17T18:05:40.740Z,8.60
2022-08-17T18:08:32.381Z,10.60
2022-08-17T18:11:24.039Z,8.70
2022-08-17T18:14:00.766Z,8.05
2022-08-17T18:16:29.768Z,7.97
2022-08-17T18:18:59.634Z,8.32
2022-08-17T18:21:37.971Z,8.18
2022-08-17T18:24:10.669Z,8.27
2022-08-17T18:26:44.987Z,7.68
2022-08-17T18:29:35.917Z,8.20
2022-08-17T18:32:23.069Z,7.07
2022-08-17T18:35:07.390Z,9.70
2022-08-17T18:37:56.718Z,7.32
2022-08-17T18:40:28.465Z,7.50
2022-08-17T18:43:03.435Z,7.10
2022-08-17T18:45:52.133Z,8.57
2022-08-17T18:48:50.074Z,7.45
2022-08-17T18:51:40.511Z,7.95
2022-08-17T18:54:15.615Z,7.60
2022-08-17T18:56:57.928Z,9.88
2022-08-17T18:59:28.891Z,7.78
2022-08-17T19:02:33.668Z,7.22
2022-08-17T19:05:28.281Z,7.30
2022-08-17T19:08:22.996Z,8.00
2022-08-17T19:11:03.443Z,7.63
2022-08-17T19:13:42.316Z,6.75
2022-08-17T19:16:32.476Z,8.23
2022-08-17T19:19:14.537Z,8.73
2022-08-17T19:22:29.219Z,7.00
2022-08-17T19:25:11.202Z,7.07
2022-08-17T19:27:57.832Z,7.63
2022-08-17T19:30:26.024Z,7.68
2022-08-17T19:32:53.242Z,7.93
2022-08-17T19:35:24.945Z,7.85
2022-08-17T19:37:59.684Z,9.05
2022-08-17T19:40:56.440Z,8.23
2022-08-17T19:43:30.813Z,7.40
2022-08-17T19:46:11.622Z,8.20
2022-08-17T19:49:10.088Z,8.38
2022-08-17T19:52:00.285Z,7.97
2022-08-17T19:54:31.137Z,7.85
2022-08-17T19:57:08.483Z,7.85
2022-08-17T19:59:49.111Z,8.30
2022-08-17T20:02:18.897Z,9.07
2022-08-17T20:04:49.325Z,7.47
2022-08-17T20:07:26.364Z,8.13
2022-08-17T20:10:02.109Z,7.55
2022-08-17T20:12:51.949Z,7.45
2022-08-17T20:15:31.002Z,7.07
2022-08-17T20:20:49.587Z,7.65
2022-08-17T20:23:56.594Z,7.72
2022-08-17T20:26:27.429Z,6.85
2022-08-17T20:29:37.510Z,7.25
2022-08-17T20:32:15.410Z,7.40
2022-08-17T20:34:46.600Z,6.82
2022-08-17T20:37:13.603Z,7.88
2022-08-17T20:40:09.121Z,7.68
2022-08-17T20:42:36.884Z,6.95
2022-08-17T20:45:26.446Z,7.00
2022-08-17T20:48:33.348Z,7.85
2022-08-17T20:50:56.155Z,7.65
2022-08-17T20:53:47.631Z,7.80
2022-08-17T20:56:45.418Z,7.95
2022-08-17T20:59:25.618Z,7.60
2022-08-17T21:02:17.690Z,8.02
2022-08-17T21:04:52.935Z,7.57
2022-08-17T21:07:51.979Z,8.75
2022-08-17T21:10:21.501Z,7.55
2022-08-17T21:12:59.433Z,6.82
2022-08-17T21:15:48.723Z,7.97
2022-08-17T21:18:46.672Z,9.82
2022-08-17T21:21:49.171Z,12.45
2022-08-17T21:24:57.843Z,7.82
2022-08-17T21:28:23.256Z,8.02
2022-08-17T21:31:09.167Z,7.68
2022-08-17T21:33:39.169Z,8.30
2022-08-17T21:36:12.130Z,7.40
2022-08-17T21:38:48.120Z,6.95
2022-08-17T21:41:33.956Z,6.95
2022-08-17T21:44:21.857Z,7.15
2022-08-17T21:46:51.422Z,7.35
2022-08-17T21:49:25.618Z,7.60
2022-08-17T21:51:56.742Z,6.45
2022-08-17T21:54:42.676Z,7.55
2022-08-17T21:57:17.655Z,8.20
2022-08-17T21:59:45.038Z,7.47
2022-08-17T22:02:25.263Z,7.22
2022-08-17T22:05:00.136Z,7.88
2022-08-17T22:08:02.495Z,6.95
2022-08-17T22:10:40.381Z,7.43
2022-08-17T22:13:17.115Z,8.48
2022-08-17T22:16:28.134Z,7.70
2022-08-17T22:18:58.246Z,8.40
2022-08-17T22:21:25.777Z,9.57
2022-08-17T22:24:06.715Z,7.32
2022-08-17T22:27:01.396Z,8.15
2022-08-17T22:29:57.064Z,9.18
2022-08-17T22:32:45.269Z,6.82
2022-08-17T22:35:30.375Z,7.47
2022-08-17T22:38:17.797Z,11.07
2022-08-17T22:40:53.980Z,7.35
2022-08-17T22:43:28.720Z,6.90
2022-08-17T22:46:00.026Z,7.05
2022-08-17T22:48:29.826Z,8.68
2022-08-17T22:51:25.805Z,6.70
2022-08-17T22:54:14.756Z,14.48
2022-08-17T22:57:18.734Z,7.45
2022-08-17T22:59:50.217Z,8.88
2022-08-17T23:02:21.897Z,6.97
2022-08-17T23:05:13.141Z,7.65
2022-08-17T23:07:42.401Z,7.30
2022-08-17T23:10:11.651Z,9.80
2022-08-17T23:12:39.838Z,6.55
2022-08-17T23:15:16.431Z,6.63
2022-08-17T23:17:44.440Z,6.78
2022-08-17T23:20:15.219Z,8.20
2022-08-17T23:22:52.461Z,6.43
2022-08-17T23:25:28.206Z,6.63
2022-08-17T23:27:57.742Z,8.30
2022-08-17T23:30:25.720Z,6.78
2022-08-17T23:32:54.529Z,6.65
2022-08-17T23:35:39.806Z,7.38
2022-08-17T23:38:11.775Z,7.53
2022-08-17T23:40:39.921Z,7.50
2022-08-17T23:43:17.434Z,8.65
2022-08-17T23:45:50.817Z,6.70
2022-08-17T23:48:28.490Z,6.40
2022-08-17T23:51:14.594Z,7.55
2022-08-17T23:53:47.445Z,7.93
2022-08-17T23:56:15.188Z,6.53
2022-08-17T23:58:43.591Z,7.10
